• Join FlightAware (Why Join?)
  • Login
  • US Flag 
06:51PM EDT


 

Airport Tracker/Info


-or-


 

Live Flight TrackerFlight Track Log ✈ LOF3376 ✈ 03-May-2013 ✈ KGRR - KORD

Flight Track Log - Related Links

Times and Time Zones

All times are in EDT time to prevent confusion due to time zone crossing. See the LOF3376 flight status page for this flight to view local times or setup timezone preferences in your user account.

Time Position Orientation Groundspeed Altitude Reporting Facility
EDT Latitude Longitude Course Direction KTS MPH feet Rate Location/Type
06:04AM 42.8394 -85.5372 246° West 207 238 2,900  Level Chicago Center
06:05AM 42.8158 -85.6156 248° West 222 255 4,600 2,040 Climbing Chicago Center
06:06AM 42.7883 -85.7083 248° West 252 290 7,100 2,340 Climbing Chicago Center
06:07AM 42.7647 -85.8064 252° West 266 306 9,400 1,980 Climbing Chicago Center
06:08AM 42.7281 -85.9065 248° West  Level FlightAware Approximate
06:08AM 42.7403 -85.9103 252° West 280 322 11,100  Level Chicago Center
06:09AM 42.6977 -86.0069 246° West  Level FlightAware Approximate
06:09AM 42.7119 -86.0281 252° West 313 360 12,500  Level Chicago Center
06:10AM 42.6836 -86.1511 253° West 336 387 14,300 1,620 Climbing Chicago Center
06:11AM 42.6547 -86.2733 252° West 338 389 15,800 840 Climbing Chicago Center
06:12AM 42.6236 -86.4006 252° West 353 406 16,000 60 Climbing Chicago Center
06:13AM 42.5900 -86.5386 252° West 381 438 16,000  Level Chicago Center
06:14AM 42.5564 -86.6772 252° West 387 445 16,000  Level Chicago Center
06:15AM 42.5250 -86.8100 252° West 374 430 16,000 -720 Level Chicago Center
06:16AM 42.4925 -86.9394 251° West 366 421 14,600 -2,220 Descending Chicago Center
06:17AM 42.4611 -87.0633 251° West 352 405 11,600 -2,280 Descending Chicago Center
06:18AM 42.4311 -87.1842 251° West 344 396 10,100 -900 Descending Chicago Center
06:19AM 42.4019 -87.2989 251° West 329 379 9,900 -120 Descending Chicago Center
06:20AM 42.3697 -87.4203 250° West 339 390 9,900  Level Chicago Center
06:21AM 42.3300 -87.5375 245° Southwest 349 402 9,900  Level Chicago Center
06:22AM 42.2572 -87.6222 221° Southwest 341 392 9,900  Level Chicago Center
06:23AM 42.1825 -87.7000 218° Southwest 341 392 10,000  Climbing Chicago Center
06:23AM 42.1167 -87.7667 217° Southwest 329 379 10,000 -660 Level Chicago TRACON
06:25AM 42.1000 -87.8833 259° West 288 331 8,700 -1,320 Descending Chicago TRACON
06:26AM 42.1000 -87.9833 270° West 273 314 7,300 -900 Descending Chicago TRACON
06:26AM 42.1000 -88.0667 270° West 237 273 7,100 -180 Descending Chicago TRACON
06:28AM 42.0833 -88.1667 257° West 213 245 7,000 -420 Descending Chicago TRACON
06:28AM 42.0833 -88.2167 270° West 198 228 6,300 -1,080 Descending Chicago TRACON
06:29AM 42.0908 -88.2492 287° West 206 237 5,800 -1,260 Descending Chicago Center
06:30AM 42.0675 -88.3072 242° Southwest 200 230 4,600 -960 Descending Chicago Center
06:31AM 42.0161 -88.3031 177° South 192 221 3,900 -360 Descending Chicago Center
06:32AM 41.9897 -88.2403 119° Southeast 195 224 3,900  Level Chicago Center
06:33AM 41.9686 -88.1772 114° Southeast 194 223 4,000 60 Climbing Chicago Center